Terminal Aerodrome Forecast
Issued by NWS

Home | Current Version | Previous Version | Text Only | Print | Product List | Glossary Off
Versions: 1 2 3 4 5 6 7 8 9 10 11 12 13 14 15 16 17 18 19 20 21 22 23 24 25 26 27 28 29 30 31 32

000
FTUS43 KTOP 272320
TAFFOE
TAF
KFOE 272320Z 2800/2824 17012KT P6SM BKN150
     FM280700 17011KT P6SM VCTS SCT060CB BKN150
      TEMPO 2810/2813 VRB15G25KT 3SM TSRA BKN030CB
     FM281400 18010KT P6SM BKN050
     FM281900 22013KT P6SM VCTS BKN050CB
     FM282200 24010KT P6SM SCT050 BKN150=

USA.gov is the U.S. government's official web portal to all federal, state and local government web resources and services.